Time;durP1;ratioP1;P1;durP2;ratioP2;P2;SDS_P1;SDS_P2;PMS_P1;PMS_P2;Temp;Humidity;BMP_temperature;BMP_pressure;BME280_temperature;BME280_humidity;BME280_pressure;Samples;Min_cycle;Max_cycle;Signal;HPM_P1;HPM_P2
2021/12/10 00:02:03;;;;;;;;;6.25;2.75;;;;;16.85;51.35;100227.63;146605;593;46021;-78
2021/12/10 00:04:55;;;;;;;;;1.33;1.33;;;;;16.89;50.97;100225.97;146605;573;46016;-78
2021/12/10 00:07:48;;;;;;;;;5.00;3.50;;;;;16.88;50.70;100232.94;146609;641;46028;-78
2021/12/10 00:10:45;;;;;;;;;4.75;2.25;;;;;16.77;50.69;100214.41;146605;563;46016;-75
2021/12/10 00:13:37;;;;;;;;;2.67;1.67;;;;;16.92;51.07;100215.56;146608;608;46020;-77
2021/12/10 00:16:29;;;;;;;;;1.67;0.33;;;;;16.89;49.76;100211.16;146607;564;46918;-77
2021/12/10 00:19:31;;;;;;;;;2.00;2.00;;;;;16.92;50.60;100208.56;146608;669;47010;-78
2021/12/10 00:22:38;;;;;;;;;1.00;0.00;;;;;16.92;50.04;100207.69;146607;599;46017;-77
2021/12/10 00:25:39;;;;;;;;;2.00;0.00;;;;;16.94;50.70;100199.00;146609;571;46010;-78
2021/12/10 00:28:38;;;;;;;;;1.00;1.00;;;;;16.95;51.20;100192.91;146609;656;46012;-81
2021/12/10 00:31:48;;;;;;;;;4.00;0.67;;;;;16.95;51.26;100202.50;146609;576;46010;-75
2021/12/10 00:34:51;;;;;;;;;2.00;1.00;;;;;16.98;50.97;100203.44;146610;577;46012;-76
2021/12/10 00:37:44;;;;;;;;;2.00;2.00;;;;;16.98;51.93;100199.94;146611;593;46011;-76
2021/12/10 00:40:37;;;;;;;;;2.33;1.00;;;;;17.02;52.41;100214.84;146607;576;46917;-79
2021/12/10 00:43:29;;;;;;;;;1.67;1.67;;;;;17.03;54.45;100207.00;146609;626;46020;-81
2021/12/10 00:46:21;;;;;;;;;2.00;0.33;;;;;17.04;52.72;100215.72;146608;608;46016;-80
2021/12/10 00:49:14;;;;;;;;;3.00;1.33;;;;;17.07;54.56;100214.06;146609;581;46020;-77
2021/12/10 00:52:08;;;;;;;;;2.00;2.00;;;;;17.10;54.82;100210.59;146608;635;46014;-75
2021/12/10 00:55:00;;;;;;;;;3.00;1.00;;;;;17.06;54.69;100207.06;146609;642;46010;-75
2021/12/10 00:57:53;;;;;;;;;1.67;1.67;;;;;17.09;55.08;100206.22;146607;582;46918;-75
2021/12/10 01:00:50;;;;;;;;;1.67;1.00;;;;;17.08;53.89;100197.50;146605;599;46021;-77
2021/12/10 01:03:46;;;;;;;;;2.33;1.33;;;;;17.10;53.99;100197.50;146610;647;46012;-76
2021/12/10 01:06:41;;;;;;;;;3.33;1.67;;;;;17.08;54.62;100197.50;146608;609;46012;-77
2021/12/10 01:09:37;;;;;;;;;2.33;1.67;;;;;17.09;55.25;100195.75;146608;564;46016;-77
2021/12/10 01:12:43;;;;;;;;;3.00;1.00;;;;;17.10;55.27;100200.13;146608;583;46020;-77
2021/12/10 01:15:54;;;;;;;;;2.00;1.00;;;;;17.08;55.77;100191.38;146608;610;46017;-76
2021/12/10 01:25:35;;;;;;;;;4.67;1.00;;;;;17.06;55.50;100195.69;146608;692;46020;-77
2021/12/10 01:28:28;;;;;;;;;5.00;5.00;;;;;17.05;54.02;100201.81;146607;623;46012;-77
2021/12/10 01:31:20;;;;;;;;;7.33;5.00;;;;;17.04;53.38;100208.78;146605;613;46033;-78
2021/12/10 01:34:13;;;;;;;;;7.25;5.50;;;;;16.99;52.43;100199.97;146606;626;46918;-79
2021/12/10 01:37:07;;;;;;;;;8.50;7.00;;;;;16.88;51.83;100205.88;146608;584;46021;-78
2021/12/10 01:40:00;;;;;;;;;13.00;10.25;;;;;16.71;52.42;100211.66;146606;598;46016;-84
2021/12/10 01:42:55;;;;;;;;;16.25;11.00;;;;;16.57;52.45;100214.03;146607;593;46020;-83
2021/12/10 01:45:48;;;;;;;;;12.00;10.00;;;;;16.45;52.03;100216.41;146606;591;46016;-82
2021/12/10 01:48:50;;;;;;;;;13.75;11.00;;;;;16.29;52.88;100209.09;146611;565;45020;-77
2021/12/10 01:51:45;;;;;;;;;11.50;11.50;;;;;16.16;54.32;100216.69;146606;585;46016;-77
2021/12/10 01:54:43;;;;;;;;;12.75;11.75;;;;;16.06;53.99;100233.06;146609;579;46034;-75
2021/12/10 01:57:39;;;;;;;;;20.50;17.00;;;;;15.88;55.52;100217.84;146608;578;45034;-76
2021/12/10 02:00:35;;;;;;;;;23.50;18.50;;;;;15.79;55.81;100245.53;146604;598;46020;-75
2021/12/10 02:03:28;;;;;;;;;19.00;14.50;;;;;15.70;57.53;100246.22;146605;620;46918;-76
2021/12/10 02:06:21;;;;;;;;;17.00;12.50;;;;;15.64;57.87;100244.31;146610;573;46011;-82
2021/12/10 02:09:15;;;;;;;;;13.25;13.00;;;;;15.60;58.74;100249.41;146609;659;46012;-83
2021/12/10 02:12:08;;;;;;;;;14.00;11.75;;;;;15.52;58.18;100251.00;146610;579;46010;-79
2021/12/10 02:15:02;;;;;;;;;11.50;10.75;;;;;15.43;59.34;100254.25;146604;627;46016;-82
2021/12/10 02:17:57;;;;;;;;;27.00;19.25;;;;;15.35;58.34;100243.59;146611;572;46010;-81
2021/12/10 02:21:18;;;;;;;;;24.50;24.00;;;;;15.29;57.65;100248.69;146607;686;46016;-76
2021/12/10 02:24:12;;;;;;;;;23.00;20.25;;;;;15.24;59.13;100248.59;146610;597;46010;-74
2021/12/10 02:27:08;;;;;;;;;13.75;12.25;;;;;15.17;59.19;100249.28;146605;677;46918;-76
2021/12/10 02:30:00;;;;;;;;;13.25;12.75;;;;;15.12;59.50;100258.72;146607;567;46010;-75
2021/12/10 02:32:53;;;;;;;;;32.50;29.25;;;;;15.10;60.28;100259.53;146606;671;47012;-73
2021/12/10 02:35:46;;;;;;;;;16.50;15.00;;;;;15.04;60.14;100267.19;146605;560;46021;-73
2021/12/10 02:38:39;;;;;;;;;18.50;16.75;;;;;14.99;60.42;100262.75;146605;598;46012;-86
2021/12/10 02:41:34;;;;;;;;;18.75;18.00;;;;;14.96;60.17;100267.87;146609;693;46010;-80
2021/12/10 02:44:31;;;;;;;;;17.00;14.75;;;;;14.94;60.56;100271.28;146604;564;46918;-80
2021/12/10 02:47:23;;;;;;;;;23.50;22.50;;;;;14.92;61.43;100275.59;146608;571;47010;-79
2021/12/10 02:50:18;;;;;;;;;16.50;15.75;;;;;14.86;62.34;100268.50;146605;580;46918;-76
2021/12/10 02:53:14;;;;;;;;;28.00;23.50;;;;;14.78;62.46;100276.09;146607;679;46020;-75
2021/12/10 02:56:08;;;;;;;;;26.50;17.75;;;;;14.72;62.64;100277.66;146606;571;46017;-75
2021/12/10 02:59:02;;;;;;;;;5.75;4.75;;;;;14.67;62.28;100290.59;146606;591;46020;-75
2021/12/10 03:01:56;;;;;;;;;5.67;4.33;;;;;14.66;61.89;100294.03;146607;584;46012;-78
2021/12/10 03:04:49;;;;;;;;;8.50;8.50;;;;;14.63;61.78;100290.47;146607;650;46010;-75
2021/12/10 03:07:44;;;;;;;;;6.25;5.50;;;;;14.62;61.88;100292.19;146604;624;47012;-78
2021/12/10 03:10:37;;;;;;;;;14.00;12.00;;;;;14.60;62.06;100287.78;146607;697;46020;-81
2021/12/10 03:13:29;;;;;;;;;12.00;8.50;;;;;14.58;61.45;100292.06;146607;570;46918;-80
2021/12/10 03:16:23;;;;;;;;;20.75;17.50;;;;;14.59;62.10;100296.44;146607;670;46010;-80
2021/12/10 03:19:16;;;;;;;;;9.75;7.00;;;;;14.57;62.09;100301.59;146606;707;46035;-87
2021/12/10 03:22:10;;;;;;;;;3.67;3.67;;;;;14.54;61.95;100296.31;146611;588;46010;-90
2021/12/10 03:25:03;;;;;;;;;9.75;9.75;;;;;14.51;62.49;100301.44;146606;673;47012;-91
2021/12/10 03:27:56;;;;;;;;;7.50;6.00;;;;;14.49;62.34;100300.50;146606;679;47011;-86
2021/12/10 03:30:52;;;;;;;;;4.33;3.00;;;;;14.47;64.11;100316.09;146608;629;46016;-84
2021/12/10 03:33:45;;;;;;;;;2.67;2.67;;;;;14.46;63.93;100321.28;146609;569;46020;-84
2021/12/10 03:36:45;;;;;;;;;2.67;1.00;;;;;14.42;64.56;100328.09;146604;598;46016;-86
2021/12/10 03:39:38;;;;;;;;;2.00;1.00;;;;;14.40;64.37;100344.56;146608;584;46020;-84
2021/12/10 03:42:30;;;;;;;;;4.00;4.00;;;;;14.33;64.09;100320.91;146609;609;46013;-81
2021/12/10 03:45:22;;;;;;;;;4.00;4.00;;;;;14.29;64.56;100328.59;146609;576;46020;-78
2021/12/10 03:48:18;;;;;;;;;3.00;2.33;;;;;14.22;64.69;100334.47;146609;589;46012;-78
2021/12/10 03:51:14;;;;;;;;;3.00;2.33;;;;;14.16;65.57;100339.50;146609;638;46021;-78
2021/12/10 03:54:09;;;;;;;;;5.50;5.00;;;;;14.09;65.56;100320.16;146607;604;45042;-78
2021/12/10 03:57:02;;;;;;;;;9.50;7.75;;;;;14.06;65.64;100317.47;146607;685;46029;-78
2021/12/10 03:59:54;;;;;;;;;3.33;3.00;;;;;14.02;66.44;100308.69;146607;604;46014;-79
2021/12/10 04:02:46;;;;;;;;;4.00;2.67;;;;;13.95;65.42;100308.44;146612;636;45020;-78
2021/12/10 04:05:38;;;;;;;;;0.67;0.67;;;;;13.89;66.39;100322.16;146609;585;46013;-77
2021/12/10 04:08:32;;;;;;;;;8.00;5.25;;;;;13.88;66.72;100329.94;146608;649;46020;-81
2021/12/10 04:11:25;;;;;;;;;11.00;8.25;;;;;13.89;67.24;100331.69;146606;624;46918;-81
2021/12/10 04:14:17;;;;;;;;;0.67;0.67;;;;;13.83;66.56;100334.97;146609;671;46020;-80
2021/12/10 04:17:11;;;;;;;;;0.00;0.00;;;;;13.74;68.48;100308.66;146607;612;46918;-83
2021/12/10 04:20:04;;;;;;;;;1.00;0.00;;;;;13.61;66.57;100320.38;146612;564;45021;-83
2021/12/10 04:22:56;;;;;;;;;0.00;0.00;;;;;13.55;64.41;100323.69;146607;631;46917;-83
2021/12/10 04:25:50;;;;;;;;;2.67;2.00;;;;;13.54;65.57;100329.72;146609;587;47011;-87
2021/12/10 04:28:43;;;;;;;;;1.00;1.00;;;;;13.53;65.24;100329.69;146606;604;46918;-80
2021/12/10 04:31:35;;;;;;;;;2.50;1.00;;;;;13.55;63.72;100331.50;146607;577;45917;-75
2021/12/10 04:34:28;;;;;;;;;7.25;6.25;;;;;13.58;65.97;100326.41;146606;572;46016;-76
2021/12/10 04:37:20;;;;;;;;;6.25;6.25;;;;;13.60;64.85;100326.44;146607;635;46020;-75
2021/12/10 04:40:17;;;;;;;;;8.75;7.75;;;;;13.62;64.75;100330.00;146606;574;47012;-76
2021/12/10 04:43:10;;;;;;;;;6.33;6.00;;;;;13.64;64.68;100312.66;146608;578;46021;-77
2021/12/10 04:46:03;;;;;;;;;4.50;3.50;;;;;13.64;65.02;100315.28;146604;570;46014;-76
2021/12/10 04:48:59;;;;;;;;;4.25;4.25;;;;;13.61;64.91;100307.34;146607;602;46011;-74
2021/12/10 04:51:57;;;;;;;;;5.00;3.00;;;;;13.61;65.39;100309.97;146604;627;46016;-75
2021/12/10 04:54:49;;;;;;;;;0.00;0.00;;;;;13.62;64.59;100320.44;146604;601;46020;-77
2021/12/10 04:57:42;;;;;;;;;0.00;0.00;;;;;13.59;64.06;100324.69;146607;564;47012;-78
2021/12/10 05:00:48;;;;;;;;;0.00;0.00;;;;;13.62;64.18;100343.00;146610;640;47010;-78
2021/12/10 05:03:40;;;;;;;;;1.67;1.67;;;;;13.59;64.15;100348.13;146607;679;46918;-77
2021/12/10 05:06:32;;;;;;;;;6.25;5.75;;;;;13.54;63.24;100349.69;146606;566;46020;-79
2021/12/10 05:09:26;;;;;;;;;4.75;4.75;;;;;13.51;63.68;100339.16;146604;617;46016;-80
2021/12/10 05:12:19;;;;;;;;;4.00;3.00;;;;;13.49;62.82;100333.91;146609;557;46020;-80
2021/12/10 05:15:15;;;;;;;;;3.00;3.00;;;;;13.45;62.79;100319.00;146605;646;46014;-81
2021/12/10 05:18:08;;;;;;;;;4.00;2.00;;;;;13.42;62.84;100302.38;146609;569;46011;-82
2021/12/10 05:21:01;;;;;;;;;0.00;0.00;;;;;13.40;62.96;100303.25;146622;598;48012;-80
2021/12/10 05:23:54;;;;;;;;;0.00;0.00;;;;;13.38;63.30;100314.44;146611;574;46010;-79
2021/12/10 05:26:47;;;;;;;;;2.00;1.00;;;;;13.38;63.99;100317.91;146608;647;46013;-81
2021/12/10 05:29:39;;;;;;;;;0.00;0.00;;;;;13.35;63.05;100322.13;146607;574;46020;-75
2021/12/10 05:32:31;;;;;;;;;1.67;1.33;;;;;13.32;62.89;100328.13;146606;616;46017;-79
2021/12/10 05:35:25;;;;;;;;;0.00;0.00;;;;;13.26;63.16;100333.13;146610;570;46012;-75
2021/12/10 05:38:19;;;;;;;;;0.00;0.00;;;;;13.20;63.08;100345.91;146606;588;46014;-74
2021/12/10 05:41:12;;;;;;;;;2.00;0.00;;;;;13.18;62.79;100355.37;146612;616;45021;-75
2021/12/10 05:44:04;;;;;;;;;0.00;0.00;;;;;13.20;63.34;100374.53;146608;673;46016;-75
2021/12/10 05:46:59;;;;;;;;;1.00;1.00;;;;;13.20;62.87;100373.66;146609;569;47010;-80
2021/12/10 05:49:51;;;;;;;;;0.67;0.67;;;;;13.21;61.85;100384.12;146605;655;46014;-79
2021/12/10 05:52:44;;;;;;;;;2.00;2.00;;;;;13.20;62.85;100364.12;146604;594;46020;-79
2021/12/10 05:55:42;;;;;;;;;4.25;2.25;;;;;13.20;62.72;100363.25;146607;645;46012;-75
2021/12/10 05:58:34;;;;;;;;;0.67;0.67;;;;;13.18;61.90;100369.28;146609;630;46029;-75
2021/12/10 06:01:27;;;;;;;;;3.67;1.00;;;;;13.20;63.05;100365.84;146608;624;46016;-75
2021/12/10 06:04:23;;;;;;;;;2.33;2.00;;;;;13.26;62.97;100379.09;146610;579;46010;-75
2021/12/10 06:07:15;;;;;;;;;1.00;1.00;;;;;13.26;62.29;100376.50;146609;622;45043;-75
2021/12/10 06:10:09;;;;;;;;;2.50;2.50;;;;;13.28;61.66;100378.34;146606;716;46918;-73
2021/12/10 06:13:01;;;;;;;;;5.25;2.75;;;;;13.31;62.98;100395.78;146607;634;46918;-73
2021/12/10 06:15:55;;;;;;;;;41.50;32.75;;;;;13.32;62.53;100398.44;146611;624;46010;-77
2021/12/10 06:18:47;;;;;;;;;150.50;123.75;;;;;13.31;62.81;100401.00;146613;631;46013;-78
2021/12/10 06:21:42;;;;;;;;;122.00;101.67;;;;;13.29;62.52;100406.13;146610;665;46020;-79
2021/12/10 06:24:35;;;;;;;;;62.25;46.25;;;;;13.25;62.49;100411.19;146610;621;46032;-82
2021/12/10 06:27:27;;;;;;;;;58.50;43.75;;;;;13.24;62.63;100414.56;146605;626;46021;-75
2021/12/10 06:30:24;;;;;;;;;49.00;35.50;;;;;13.28;63.53;100417.41;146604;569;46029;-76
2021/12/10 06:33:18;;;;;;;;;18.75;17.25;;;;;13.25;64.53;100414.69;146608;570;46011;-75
2021/12/10 06:36:11;;;;;;;;;25.00;22.50;;;;;13.17;64.59;100410.88;146607;575;46012;-76
2021/12/10 06:39:04;;;;;;;;;7.25;5.50;;;;;13.09;64.50;100407.13;146608;661;46020;-74
2021/12/10 06:41:58;;;;;;;;;3.75;3.75;;;;;13.02;64.64;100411.22;146606;700;46017;-73
2021/12/10 06:44:51;;;;;;;;;8.75;8.25;;;;;13.02;66.99;100407.72;146609;636;46020;-73
2021/12/10 06:47:48;;;;;;;;;10.25;9.75;;;;;13.04;67.16;100411.28;146608;651;45918;-75
2021/12/10 06:50:47;;;;;;;;;5.75;5.00;;;;;13.06;66.37;100401.81;146605;632;46010;-75
2021/12/10 06:53:42;;;;;;;;;9.75;8.00;;;;;13.08;66.91;100400.13;146608;681;46012;-75
2021/12/10 06:56:36;;;;;;;;;11.75;9.50;;;;;13.09;67.13;100401.94;146606;595;46020;-76
2021/12/10 06:59:28;;;;;;;;;7.00;6.50;;;;;13.07;66.33;100381.03;146607;670;45016;-79
2021/12/10 07:02:21;;;;;;;;;24.50;20.75;;;;;13.09;66.36;100370.69;146608;598;46020;-81
2021/12/10 07:05:13;;;;;;;;;4.25;3.75;;;;;13.08;66.04;100368.91;146606;629;46016;-81
2021/12/10 07:08:05;;;;;;;;;13.00;11.25;;;;;13.06;66.04;100362.78;146609;683;46030;-81
2021/12/10 07:10:59;;;;;;;;;4.50;2.00;;;;;13.08;66.41;100376.69;146604;628;46017;-79
2021/12/10 07:13:55;;;;;;;;;16.50;14.75;;;;;12.92;67.40;100351.84;146608;565;46012;-79
2021/12/10 07:16:50;;;;;;;;;5.25;5.25;;;;;13.03;67.03;100371.34;146606;714;46918;-80
2021/12/10 07:19:43;;;;;;;;;2.50;1.75;;;;;12.99;67.38;100369.47;146607;706;46010;-80
2021/12/10 07:22:35;;;;;;;;;3.00;3.00;;;;;12.98;67.29;100361.59;146607;564;46012;-80
2021/12/10 07:25:27;;;;;;;;;0.33;0.33;;;;;12.92;68.60;100355.34;146609;571;46021;-87
2021/12/10 07:28:20;;;;;;;;;0.00;0.00;;;;;12.90;67.54;100357.00;146607;580;46917;-86
2021/12/10 07:31:13;;;;;;;;;15.75;13.50;;;;;12.95;67.39;100363.25;146609;585;46011;-87
2021/12/10 07:34:06;;;;;;;;;9.25;6.75;;;;;13.00;67.91;100350.41;146607;563;46012;-80
2021/12/10 07:36:59;;;;;;;;;2.25;2.25;;;;;13.04;68.04;100336.66;146612;591;45020;-73
2021/12/10 07:39:51;;;;;;;;;4.00;2.00;;;;;13.08;68.60;100322.03;146608;594;45041;-75
2021/12/10 07:42:44;;;;;;;;;2.00;2.00;;;;;13.06;68.94;100295.09;146611;626;45020;-79
2021/12/10 07:45:36;;;;;;;;;13.25;10.50;;;;;13.03;68.45;100298.47;146606;635;46017;-77
2021/12/10 07:48:29;;;;;;;;;6.50;6.50;;;;;13.08;67.02;100301.22;146609;577;45051;-75
2021/12/10 07:51:28;;;;;;;;;23.75;19.25;;;;;13.15;67.38;100311.91;146610;569;46012;-76
2021/12/10 07:54:20;;;;;;;;;22.25;19.50;;;;;13.24;67.92;100315.63;146610;603;46010;-78
2021/12/10 07:57:12;;;;;;;;;32.50;28.50;;;;;13.34;68.82;100329.06;146606;583;46917;-81
2021/12/10 08:00:05;;;;;;;;;28.00;25.00;;;;;13.43;67.69;100328.50;146606;600;46010;-84
2021/12/10 08:02:58;;;;;;;;;17.00;13.75;;;;;13.52;67.31;100338.31;146606;573;46016;-83
2021/12/10 08:05:51;;;;;;;;;18.00;11.75;;;;;13.60;66.18;100352.50;146608;573;46020;-84
2021/12/10 08:08:44;;;;;;;;;19.75;18.50;;;;;13.67;64.15;100362.25;146606;569;46017;-85
2021/12/10 08:11:37;;;;;;;;;15.50;13.50;;;;;13.75;63.36;100362.53;146610;594;46010;-85
2021/12/10 08:14:29;;;;;;;;;14.50;13.50;;;;;13.82;62.48;100351.47;146604;612;46016;-73
2021/12/10 08:17:22;;;;;;;;;12.75;12.00;;;;;13.91;62.60;100369.13;146608;604;46010;-82
2021/12/10 08:20:21;;;;;;;;;20.00;16.50;;;;;14.00;63.88;100372.03;146605;579;46016;-79
2021/12/10 08:23:14;;;;;;;;;60.75;45.50;;;;;14.06;63.93;100385.25;146611;629;45020;-73
2021/12/10 08:26:07;;;;;;;;;55.50;44.50;;;;;14.12;64.71;100392.38;146604;591;46016;-75
2021/12/10 08:28:59;;;;;;;;;39.25;33.00;;;;;14.16;64.19;100402.94;146608;595;46020;-75
2021/12/10 08:31:55;;;;;;;;;51.00;40.50;;;;;12.55;63.83;100131.16;146604;589;47012;-73
2021/12/10 08:34:48;;;;;;;;;52.50;41.25;;;;;14.19;63.04;100391.75;146607;627;46012;-74
2021/12/10 08:37:41;;;;;;;;;57.75;46.00;;;;;14.16;63.21;100394.25;146607;694;46016;-74
2021/12/10 08:40:38;;;;;;;;;53.75;42.75;;;;;14.17;62.80;100396.87;146608;573;47010;-74
2021/12/10 08:43:32;;;;;;;;;32.25;29.00;;;;;14.16;62.54;100402.94;146606;577;47014;-74
2021/12/10 08:46:25;;;;;;;;;36.50;32.25;;;;;14.17;63.54;100411.66;146606;592;46033;-74
2021/12/10 08:49:17;;;;;;;;;19.00;17.75;;;;;14.20;63.41;100422.19;146606;566;46016;-69
2021/12/10 08:52:11;;;;;;;;;24.50;23.00;;;;;14.22;63.64;100412.69;146607;599;46020;-67
2021/12/10 08:55:04;;;;;;;;;22.75;22.75;;;;;14.23;61.67;100396.19;146609;609;45016;-70
2021/12/10 08:57:56;;;;;;;;;7.75;7.75;;;;;14.22;58.99;100391.84;146606;563;46020;-71
2021/12/10 09:00:53;;;;;;;;;17.25;14.75;;;;;14.19;59.80;100379.56;146605;578;46918;-71
2021/12/10 09:03:49;;;;;;;;;45.00;35.75;;;;;14.21;59.37;100380.53;146606;631;47010;-70
2021/12/10 09:06:44;;;;;;;;;46.00;37.25;;;;;14.27;59.14;100365.06;146606;691;46012;-71
2021/12/10 09:09:39;;;;;;;;;51.00;41.00;;;;;14.35;58.76;100343.53;146606;714;46020;-70
2021/12/10 09:12:32;;;;;;;;;66.75;51.75;;;;;14.39;58.25;100316.69;146608;604;47012;-69
2021/12/10 09:15:27;;;;;;;;;61.75;46.75;;;;;14.40;58.34;100313.28;146607;570;46011;-72
2021/12/10 09:18:20;;;;;;;;;38.00;31.50;;;;;14.43;58.12;100323.78;146605;618;46012;-70
2021/12/10 09:21:13;;;;;;;;;35.25;32.50;;;;;14.51;58.20;100348.41;146608;564;46020;-71
2021/12/10 09:24:08;;;;;;;;;12.00;10.00;;;;;14.64;58.92;100371.41;146608;577;46016;-71
2021/12/10 09:27:03;;;;;;;;;16.50;15.25;;;;;14.79;58.67;100371.81;146607;581;46020;-71
2021/12/10 09:29:58;;;;;;;;;36.00;30.25;;;;;14.94;57.07;100373.13;146608;571;46014;-71
2021/12/10 09:32:51;;;;;;;;;24.25;22.25;;;;;15.08;56.36;100378.69;146600;627;48010;-71
2021/12/10 09:35:44;;;;;;;;;22.75;21.75;;;;;15.16;55.56;100369.37;146604;673;46918;-71
2021/12/10 09:38:38;;;;;;;;;15.00;14.00;;;;;15.22;54.60;100352.13;146608;609;45021;-70
2021/12/10 09:41:31;;;;;;;;;23.75;21.00;;;;;15.25;54.70;100341.75;146606;591;46016;-75
2021/12/10 09:44:24;;;;;;;;;36.75;30.25;;;;;15.31;53.68;100322.75;146604;614;46012;-70
2021/12/10 09:47:17;;;;;;;;;35.25;30.00;;;;;15.31;54.10;100316.66;146605;573;46917;-73
2021/12/10 09:50:11;;;;;;;;;40.50;35.50;;;;;15.23;53.72;100291.22;146608;599;46010;-70
2021/12/10 09:53:03;;;;;;;;;5.50;4.50;;;;;15.17;52.22;100298.91;146609;685;45021;-70
2021/12/10 09:55:57;;;;;;;;;11.25;9.75;;;;;15.08;54.80;100308.19;146608;603;46010;-69
2021/12/10 09:58:49;;;;;;;;;22.75;19.50;;;;;15.06;55.49;100310.78;146606;630;46022;-69
2021/12/10 10:01:46;;;;;;;;;25.00;20.50;;;;;15.12;55.10;100323.12;146611;609;45020;-69
2021/12/10 10:04:44;;;;;;;;;17.50;16.50;;;;;15.22;55.03;100315.56;146607;607;46016;-69
2021/12/10 10:07:37;;;;;;;;;6.75;6.75;;;;;15.33;53.99;100317.59;146609;661;45021;-69
2021/12/10 10:10:32;;;;;;;;;1.00;1.00;;;;;15.47;52.20;100313.56;146606;563;46012;-69
2021/12/10 10:13:31;;;;;;;;;4.00;3.75;;;;;15.53;52.88;100325.91;146607;647;46011;-69
2021/12/10 10:16:25;;;;;;;;;1.00;0.00;;;;;15.50;50.08;100307.53;146608;625;45917;-69
2021/12/10 10:19:18;;;;;;;;;12.00;12.00;;;;;15.50;52.16;100323.22;146608;564;46010;-70
2021/12/10 10:22:14;;;;;;;;;5.75;5.75;;;;;15.52;51.64;100326.75;146605;612;46017;-69
2021/12/10 10:25:11;;;;;;;;;0.50;0.50;;;;;15.49;49.66;100317.12;146607;575;46020;-69
2021/12/10 10:28:05;;;;;;;;;0.00;0.00;;;;;15.48;49.09;100318.84;146607;604;46016;-69
2021/12/10 10:31:08;;;;;;;;;1.75;1.00;;;;;15.64;50.61;100333.19;146609;604;46010;-69
2021/12/10 10:34:03;;;;;;;;;0.00;0.00;;;;;15.89;50.16;100336.41;146606;646;46016;-71
2021/12/10 10:36:57;;;;;;;;;0.00;0.00;;;;;15.92;49.01;100332.13;146608;564;46020;-71
2021/12/10 10:39:51;;;;;;;;;0.00;0.00;;;;;15.72;50.09;100320.31;146606;593;46016;-69
2021/12/10 10:42:43;;;;;;;;;1.33;1.33;;;;;15.46;50.28;100324.87;146609;590;46010;-70
2021/12/10 10:45:39;;;;;;;;;0.00;0.00;;;;;15.19;49.96;100332.88;146607;625;46012;-70
2021/12/10 10:48:32;;;;;;;;;0.00;0.00;;;;;14.82;46.61;100315.34;146608;617;46020;-69
2021/12/10 10:51:43;;;;;;;;;0.00;0.00;;;;;14.65;49.39;100323.59;146606;608;46918;-69
2021/12/10 10:54:35;;;;;;;;;0.00;0.00;;;;;14.47;51.00;100330.84;146611;595;45043;-69
2021/12/10 10:57:33;;;;;;;;;0.00;0.00;;;;;14.32;51.60;100332.16;146607;643;46012;-70
2021/12/10 11:01:00;;;;;;;;;2.33;0.67;;;;;14.21;52.47;100333.59;146607;600;46010;-69
2021/12/10 11:04:03;;;;;;;;;1.25;1.25;;;;;14.17;53.32;100343.84;146607;686;46012;-70
2021/12/10 11:06:58;;;;;;;;;1.00;1.00;;;;;14.21;53.35;100337.91;146607;563;47010;-70
2021/12/10 11:10:02;;;;;;;;;2.00;2.00;;;;;14.17;51.63;100320.38;146606;731;46016;-69
2021/12/10 11:12:55;;;;;;;;;1.00;0.00;;;;;14.26;54.33;100328.50;146606;711;46011;-70
2021/12/10 11:16:10;;;;;;;;;3.50;3.00;;;;;14.41;54.90;100336.78;146608;665;46012;-70
2021/12/10 11:19:17;;;;;;;;;3.50;2.50;;;;;14.49;53.32;100335.28;146608;680;46011;-70
2021/12/10 11:22:21;;;;;;;;;0.00;0.00;;;;;14.58;53.16;100311.22;146604;604;46016;-69
2021/12/10 11:25:23;;;;;;;;;6.00;4.00;;;;;14.76;52.30;100306.50;146608;697;46020;-69
2021/12/10 11:28:31;;;;;;;;;1.33;0.67;;;;;14.89;48.76;100312.06;146607;580;46016;-70
2021/12/10 11:31:23;;;;;;;;;3.33;3.33;;;;;14.98;49.75;100313.22;146609;655;46020;-70
2021/12/10 11:34:15;;;;;;;;;2.25;2.00;;;;;15.19;48.21;100301.53;146607;566;46014;-70
2021/12/10 11:37:18;;;;;;;;;0.33;0.33;;;;;15.59;45.32;100290.34;146610;573;46020;-70
2021/12/10 11:40:34;;;;;;;;;2.50;2.50;;;;;16.03;47.52;100281.81;146603;619;46016;-69
2021/12/10 11:43:44;;;;;;;;;0.00;0.00;;;;;16.46;45.62;100280.09;146609;607;46010;-70
2021/12/10 11:50:00;;;;;;;;;0.67;0.67;;;;;17.50;42.96;100267.16;146608;632;46021;-71
2021/12/10 11:53:12;;;;;;;;;0.33;0.00;;;;;17.88;41.76;100264.28;146607;569;46016;-70
2021/12/10 11:56:18;;;;;;;;;0.75;0.75;;;;;17.87;44.07;100246.75;146609;595;46011;-68
2021/12/10 11:59:27;;;;;;;;;1.00;0.00;;;;;16.70;44.08;100081.63;146607;572;46012;-69
2021/12/10 12:02:30;;;;;;;;;1.33;0.00;;;;;17.55;39.87;100243.66;146607;603;46020;-71
2021/12/10 12:05:26;;;;;;;;;1.75;1.75;;;;;17.59;41.33;100253.31;146606;623;46017;-70
2021/12/10 12:08:21;;;;;;;;;4.00;3.67;;;;;17.80;39.76;100249.28;146609;657;46010;-70
2021/12/10 12:11:14;;;;;;;;;2.33;1.33;;;;;18.04;38.72;100249.63;146608;642;46017;-70
2021/12/10 12:14:30;;;;;;;;;1.67;1.00;;;;;17.35;39.51;100085.22;146609;615;46010;-70
2021/12/10 12:17:45;;;;;;;;;0.33;0.33;;;;;18.17;42.91;100230.56;146607;595;46016;-70
2021/12/10 12:20:51;;;;;;;;;1.00;1.00;;;;;18.17;39.77;100216.56;146609;599;47010;-72
2021/12/10 12:27:21;;;;;;;;;2.00;1.00;;;;;17.58;42.49;100052.31;146607;564;46021;-71
2021/12/10 12:30:19;;;;;;;;;3.33;1.33;;;;;18.93;38.96;100237.53;146607;591;46014;-72
2021/12/10 12:33:11;;;;;;;;;1.00;1.00;;;;;19.20;40.86;100250.06;146612;639;46011;-71
2021/12/10 12:36:15;;;;;;;;;2.00;2.00;;;;;19.37;36.64;100261.56;146607;637;46014;-71
2021/12/10 12:39:12;;;;;;;;;3.00;3.00;;;;;18.79;37.75;100142.00;146609;625;46010;-72
2021/12/10 12:42:07;;;;;;;;;0.33;0.00;;;;;19.81;35.65;100297.00;146605;659;46918;-71
2021/12/10 12:45:15;;;;;;;;;4.00;3.00;;;;;19.81;35.43;100308.44;146606;606;47020;-72
2021/12/10 12:48:11;;;;;;;;;4.67;2.33;;;;;19.93;35.79;100323.38;146607;630;46012;-72
2021/12/10 12:51:19;;;;;;;;;7.33;5.67;;;;;20.11;35.84;100329.66;146608;627;46010;-71
2021/12/10 12:54:18;;;;;;;;;3.00;3.00;;;;;20.15;33.64;100336.69;146607;639;46012;-71
2021/12/10 12:57:12;;;;;;;;;1.00;0.33;;;;;20.06;31.60;100345.41;146610;576;46012;-72
2021/12/10 13:00:11;;;;;;;;;0.67;0.67;;;;;20.02;34.92;100346.25;146606;587;46016;-72
2021/12/10 13:03:29;;;;;;;;;1.00;1.00;;;;;20.07;32.81;100352.44;146610;599;46012;-71
2021/12/10 13:06:49;;;;;;;;;0.00;0.00;;;;;20.35;35.13;100357.88;146608;588;47012;-71
2021/12/10 13:09:50;;;;;;;;;1.00;1.00;;;;;20.59;34.20;100357.12;146611;578;46010;-71
2021/12/10 13:12:55;;;;;;;;;2.00;1.00;;;;;20.47;34.44;100358.81;146607;633;46016;-72
2021/12/10 13:15:53;;;;;;;;;1.67;1.67;;;;;20.48;36.87;100373.75;146608;570;46010;-71
2021/12/10 13:18:47;;;;;;;;;2.67;1.67;;;;;20.53;33.75;100368.56;146607;564;46016;-72
2021/12/10 13:21:39;;;;;;;;;2.00;2.00;;;;;20.24;33.69;100374.47;146607;675;46020;-72
2021/12/10 13:24:32;;;;;;;;;3.33;3.33;;;;;20.14;37.09;100388.47;146607;592;46016;-70
2021/12/10 13:27:28;;;;;;;;;4.00;2.00;;;;;19.73;33.39;100386.41;146609;565;46010;-71
2021/12/10 13:30:31;;;;;;;;;0.67;0.67;;;;;19.09;36.19;100381.34;146608;638;46016;-71
2021/12/10 13:33:34;;;;;;;;;0.00;0.00;;;;;18.33;35.76;100378.59;146608;570;47010;-69
2021/12/10 13:36:26;;;;;;;;;0.00;0.00;;;;;17.78;36.96;100403.97;146608;575;46016;-71
2021/12/10 13:39:18;;;;;;;;;2.33;2.33;;;;;17.35;38.20;100412.78;146609;646;46020;-71
2021/12/10 13:42:11;;;;;;;;;4.00;3.33;;;;;16.98;38.05;100415.59;146607;585;46012;-71
2021/12/10 13:45:03;;;;;;;;;3.33;3.33;;;;;16.82;40.50;100405.63;146610;664;46010;-71